Time;durP1;ratioP1;P1;durP2;ratioP2;P2;SDS_P1;SDS_P2;PMS_P1;PMS_P2;Temp;Humidity;BMP_temperature;BMP_pressure;BME280_temperature;BME280_humidity;BME280_pressure;Samples;Min_cycle;Max_cycle;Signal;HPM_P1;HPM_P2
2022/05/28 03:03:03;;;;;;;8.33;1.33;;;14.10;74.30;;;;;;4935070;29;20472;-68
2022/05/28 03:05:30;;;;;;;1.00;1.00;;;14.10;73.90;;;;;;4936312;29;20518;-69
2022/05/28 03:07:56;;;;;;;0.70;0.70;;;14.10;73.90;;;;;;4935994;29;20878;-68
2022/05/28 03:10:23;;;;;;;1.10;0.70;;;14.10;73.40;;;;;;4935856;29;20980;-68
2022/05/28 03:12:50;;;;;;;0.70;0.60;;;14.10;72.60;;;;;;4936271;29;20452;-68
2022/05/28 03:15:16;;;;;;;1.10;1.00;;;14.10;73.20;;;;;;4937499;29;20455;-67
2022/05/28 03:17:43;;;;;;;0.80;0.70;;;14.00;72.70;;;;;;4935741;29;20971;-68
2022/05/28 03:20:12;;;;;;;0.73;0.70;;;13.90;72.80;;;;;;4935769;29;20456;-69
2022/05/28 03:22:39;;;;;;;0.97;0.80;;;13.90;72.90;;;;;;4935972;29;20487;-68
2022/05/28 03:25:06;;;;;;;0.90;0.70;;;13.90;72.30;;;;;;4935715;29;20968;-68
2022/05/28 03:27:33;;;;;;;0.80;0.80;;;13.90;72.70;;;;;;4935602;29;20475;-68
2022/05/28 03:29:59;;;;;;;1.00;0.90;;;13.90;72.30;;;;;;4935484;29;20919;-69
2022/05/28 03:32:26;;;;;;;0.90;0.80;;;13.90;72.30;;;;;;4935467;29;20479;-69
2022/05/28 03:34:52;;;;;;;0.90;0.90;;;13.90;72.40;;;;;;4935432;29;20551;-69
2022/05/28 03:37:20;;;;;;;0.97;0.70;;;13.90;72.40;;;;;;4935834;29;20448;-68
2022/05/28 03:39:47;;;;;;;0.80;0.77;;;13.90;72.40;;;;;;4935669;29;20506;-69
2022/05/28 03:42:14;;;;;;;0.83;0.77;;;13.90;72.50;;;;;;4935579;29;20563;-68
2022/05/28 03:44:41;;;;;;;0.93;0.83;;;13.90;72.60;;;;;;4935586;29;20516;-69
2022/05/28 03:47:08;;;;;;;0.90;0.80;;;13.80;72.40;;;;;;4935987;29;20511;-68
2022/05/28 03:49:37;;;;;;;1.00;0.80;;;13.80;72.70;;;;;;4935656;29;20478;-68
2022/05/28 03:52:05;;;;;;;0.97;0.70;;;13.80;72.80;;;;;;4935559;29;20480;-68
2022/05/28 03:54:33;;;;;;;0.80;0.60;;;13.80;73.10;;;;;;4935565;29;20526;-68
2022/05/28 03:57:05;;;;;;;0.80;0.70;;;13.80;73.00;;;;;;4935630;29;20456;-68
2022/05/28 03:59:32;;;;;;;1.77;0.90;;;13.80;73.20;;;;;;4935986;29;20432;-68
2022/05/28 04:01:59;;;;;;;0.80;0.70;;;13.80;73.10;;;;;;4935095;29;20522;-68
2022/05/28 04:04:25;;;;;;;0.90;0.70;;;13.80;73.20;;;;;;4935496;29;20456;-68
2022/05/28 04:06:52;;;;;;;1.07;0.80;;;13.80;73.60;;;;;;4935503;29;20464;-68
2022/05/28 04:09:19;;;;;;;0.77;0.67;;;13.80;73.00;;;;;;4935402;29;20502;-68
2022/05/28 04:11:47;;;;;;;0.70;0.70;;;13.80;73.20;;;;;;4935299;29;20459;-68
2022/05/28 04:14:14;;;;;;;0.70;0.67;;;13.80;73.00;;;;;;4935392;29;20455;-68
2022/05/28 04:16:40;;;;;;;1.10;0.90;;;13.80;72.70;;;;;;4935339;29;20451;-67
2022/05/28 04:19:07;;;;;;;1.10;0.80;;;13.80;72.80;;;;;;4935337;29;20451;-68
2022/05/28 04:21:34;;;;;;;0.90;0.77;;;13.90;72.50;;;;;;4934930;29;20519;-67
2022/05/28 04:24:00;;;;;;;0.90;0.80;;;13.90;72.50;;;;;;4935260;29;20451;-68
2022/05/28 04:26:27;;;;;;;0.80;0.70;;;14.00;71.20;;;;;;4935593;29;20451;-68
2022/05/28 04:28:55;;;;;;;1.10;0.80;;;13.90;71.10;;;;;;4935300;29;20474;-69
2022/05/28 04:31:22;;;;;;;0.83;0.70;;;13.90;71.00;;;;;;4934990;29;21112;-69
2022/05/28 04:33:48;;;;;;;0.80;0.80;;;14.00;70.80;;;;;;4935216;29;20522;-69
2022/05/28 04:36:15;;;;;;;0.90;0.73;;;14.00;70.70;;;;;;4935182;29;20464;-68
2022/05/28 04:38:42;;;;;;;0.90;0.80;;;14.10;69.90;;;;;;4935314;29;20507;-68
2022/05/28 04:41:09;;;;;;;1.30;0.70;;;14.30;69.60;;;;;;4935200;29;20613;-69
2022/05/28 04:43:36;;;;;;;0.83;0.80;;;14.30;69.30;;;;;;4935146;29;20543;-69
2022/05/28 04:46:04;;;;;;;1.00;0.90;;;14.40;70.60;;;;;;4935131;29;20451;-68
2022/05/28 04:48:31;;;;;;;1.03;0.90;;;14.40;69.90;;;;;;4937697;29;20447;-68
2022/05/28 04:50:57;;;;;;;0.70;0.70;;;14.50;69.20;;;;;;4938943;29;20471;-68
2022/05/28 04:53:24;;;;;;;0.80;0.80;;;14.50;68.50;;;;;;4938821;29;20448;-68
2022/05/28 04:55:51;;;;;;;1.13;0.87;;;14.50;69.30;;;;;;4938457;29;20954;-68
2022/05/28 04:58:18;;;;;;;0.93;0.80;;;14.60;69.60;;;;;;4938737;29;20511;-68
2022/05/28 05:00:46;;;;;;;1.00;0.90;;;14.70;70.00;;;;;;4938084;29;20479;-69
2022/05/28 05:03:15;;;;;;;0.90;0.77;;;14.80;69.00;;;;;;4938147;29;20550;-67
2022/05/28 05:05:42;;;;;;;0.70;0.70;;;14.90;68.70;;;;;;4938555;29;20658;-68
2022/05/28 05:08:09;;;;;;;0.90;0.80;;;15.00;67.70;;;;;;4938486;29;20448;-68
2022/05/28 05:10:35;;;;;;;1.83;1.00;;;15.00;66.60;;;;;;4938449;29;20903;-68
2022/05/28 05:13:02;;;;;;;1.00;0.80;;;15.10;67.70;;;;;;4938411;29;20873;-68
2022/05/28 05:15:29;;;;;;;0.90;0.70;;;14.80;68.60;;;;;;4938437;29;20447;-68
2022/05/28 05:17:56;;;;;;;0.87;0.87;;;14.80;68.70;;;;;;4938323;29;20563;-67
2022/05/28 05:20:24;;;;;;;0.90;0.80;;;15.00;69.50;;;;;;4938177;29;20455;-68
2022/05/28 05:22:53;;;;;;;1.10;1.00;;;15.00;69.30;;;;;;4938196;29;20510;-68
2022/05/28 05:25:20;;;;;;;0.90;0.70;;;15.10;68.50;;;;;;4938190;29;20502;-68
2022/05/28 05:27:47;;;;;;;0.83;0.80;;;15.20;68.10;;;;;;4938223;29;20455;-68
2022/05/28 05:30:14;;;;;;;1.47;0.90;;;15.30;68.30;;;;;;4937902;29;20881;-68
2022/05/28 05:32:41;;;;;;;1.20;0.90;;;15.40;67.20;;;;;;4937733;29;20464;-67
2022/05/28 05:35:08;;;;;;;1.23;1.10;;;15.50;67.00;;;;;;4938039;29;20459;-69
2022/05/28 05:37:37;;;;;;;1.83;1.23;;;15.60;66.50;;;;;;4937990;29;20448;-68
2022/05/28 05:40:05;;;;;;;3.10;1.10;;;15.70;66.70;;;;;;4937829;29;20447;-68
2022/05/28 05:42:31;;;;;;;1.37;0.90;;;15.80;66.10;;;;;;4937720;29;20487;-68
2022/05/28 05:44:58;;;;;;;1.07;1.00;;;15.80;66.40;;;;;;4937635;29;20484;-68
2022/05/28 05:47:25;;;;;;;1.40;1.13;;;15.90;65.50;;;;;;4937786;29;20488;-68
2022/05/28 05:49:52;;;;;;;0.80;0.73;;;15.80;65.00;;;;;;4937709;29;20487;-68
2022/05/28 05:52:18;;;;;;;0.80;0.77;;;15.70;65.40;;;;;;4937562;29;20467;-68
2022/05/28 05:54:46;;;;;;;0.80;0.80;;;15.60;65.00;;;;;;4937685;29;20452;-68
2022/05/28 05:57:14;;;;;;;1.30;0.93;;;15.60;65.80;;;;;;4937514;29;20463;-67
2022/05/28 05:59:40;;;;;;;1.07;0.90;;;15.70;66.30;;;;;;4937235;29;20456;-68
2022/05/28 06:02:08;;;;;;;0.90;0.73;;;15.80;65.20;;;;;;4937002;29;20496;-68
2022/05/28 06:04:35;;;;;;;0.97;0.80;;;15.80;64.60;;;;;;4937470;29;20502;-68
2022/05/28 06:07:04;;;;;;;0.90;0.80;;;16.00;64.60;;;;;;4937311;29;20451;-68
2022/05/28 06:09:30;;;;;;;0.90;0.80;;;16.20;64.20;;;;;;4937104;29;20932;-68
2022/05/28 06:11:58;;;;;;;2.80;1.10;;;16.40;64.00;;;;;;4937133;29;20513;-68
2022/05/28 06:14:25;;;;;;;1.00;0.90;;;16.40;62.90;;;;;;4936977;29;20947;-68
2022/05/28 06:16:52;;;;;;;1.00;0.90;;;16.50;62.10;;;;;;4937264;29;20552;-68
2022/05/28 06:19:18;;;;;;;0.83;0.80;;;16.60;62.90;;;;;;4937158;29;20507;-68
2022/05/28 06:21:45;;;;;;;0.80;0.70;;;16.60;62.30;;;;;;4937095;29;20475;-69
2022/05/28 06:24:11;;;;;;;1.00;0.90;;;16.80;62.50;;;;;;4936983;29;20487;-68
2022/05/28 06:26:38;;;;;;;0.90;0.90;;;16.80;61.60;;;;;;4937043;29;20502;-68
2022/05/28 06:29:06;;;;;;;0.70;0.67;;;16.80;61.40;;;;;;4937067;29;20612;-68
2022/05/28 06:31:33;;;;;;;0.80;0.73;;;16.90;61.50;;;;;;4936936;29;20467;-69
2022/05/28 06:34:00;;;;;;;0.70;0.70;;;16.90;60.50;;;;;;4936840;29;20450;-68
2022/05/28 06:36:27;;;;;;;0.70;0.63;;;16.90;61.40;;;;;;4936905;29;20460;-69
2022/05/28 06:38:54;;;;;;;0.80;0.70;;;17.10;62.40;;;;;;4936891;29;20448;-68
2022/05/28 06:41:20;;;;;;;0.80;0.80;;;17.20;61.50;;;;;;4936801;29;20527;-68
2022/05/28 06:43:47;;;;;;;0.80;0.80;;;17.30;59.60;;;;;;4936708;29;20496;-68
2022/05/28 06:46:15;;;;;;;1.60;0.90;;;17.30;60.40;;;;;;4936793;29;20460;-68
2022/05/28 06:48:42;;;;;;;2.20;0.80;;;17.40;60.30;;;;;;4936773;29;20464;-68
2022/05/28 06:51:09;;;;;;;0.80;0.70;;;17.70;59.20;;;;;;4936551;29;20475;-69
2022/05/28 06:53:38;;;;;;;1.03;0.80;;;17.80;57.40;;;;;;4936668;29;20448;-68
2022/05/28 06:56:06;;;;;;;0.80;0.70;;;17.70;56.60;;;;;;4936605;29;20503;-68
2022/05/28 06:58:33;;;;;;;0.80;0.70;;;17.60;55.90;;;;;;4936172;29;20986;-69
2022/05/28 07:01:00;;;;;;;0.90;0.80;;;17.60;56.60;;;;;;4936106;29;20491;-68
2022/05/28 07:03:30;;;;;;;1.00;0.90;;;17.80;57.20;;;;;;4936387;29;20575;-68
2022/05/28 07:05:57;;;;;;;1.10;0.70;;;18.00;55.90;;;;;;4936634;29;20460;-69
2022/05/28 07:08:24;;;;;;;0.70;0.70;;;18.10;58.70;;;;;;4936313;29;20452;-69
2022/05/28 07:10:53;;;;;;;0.90;0.90;;;18.00;55.60;;;;;;4935561;29;20542;-69
2022/05/28 07:13:21;;;;;;;0.70;0.60;;;18.20;56.30;;;;;;4936189;29;20455;-68
2022/05/28 07:15:48;;;;;;;0.70;0.60;;;18.20;53.60;;;;;;4936137;29;20464;-68
2022/05/28 07:18:15;;;;;;;0.80;0.80;;;18.20;55.20;;;;;;4936191;29;20459;-68
2022/05/28 07:20:44;;;;;;;0.80;0.70;;;18.30;55.00;;;;;;4936155;29;20479;-69
2022/05/28 07:23:13;;;;;;;0.80;0.77;;;18.40;53.90;;;;;;4936411;29;20959;-68
2022/05/28 07:25:40;;;;;;;0.70;0.70;;;18.40;53.80;;;;;;4936058;29;20451;-69
2022/05/28 07:30:48;;;;;;;0.83;0.70;;;18.50;55.20;;;;;;4935301;29;20466;-69
2022/05/28 07:33:15;;;;;;;0.80;0.70;;;18.60;52.80;;;;;;4935970;29;20476;-69
2022/05/28 07:35:43;;;;;;;0.80;0.70;;;18.80;52.00;;;;;;4936020;29;20448;-68
2022/05/28 07:38:10;;;;;;;0.80;0.60;;;18.80;52.00;;;;;;4935884;29;20498;-67
2022/05/28 07:40:36;;;;;;;0.70;0.67;;;18.80;52.00;;;;;;4935741;29;20503;-69
2022/05/28 07:43:03;;;;;;;0.70;0.70;;;18.80;54.20;;;;;;4935833;29;20570;-67
2022/05/28 07:45:31;;;;;;;0.90;0.80;;;18.70;52.20;;;;;;4936190;29;20510;-68
2022/05/28 07:47:58;;;;;;;0.90;0.90;;;18.80;52.60;;;;;;4935771;29;20543;-68
2022/05/28 07:50:24;;;;;;;0.73;0.73;;;18.90;54.50;;;;;;4935708;29;20859;-69
2022/05/28 07:52:52;;;;;;;0.80;0.80;;;18.70;51.40;;;;;;4935337;29;20935;-69
2022/05/28 07:55:19;;;;;;;0.80;0.70;;;18.70;50.90;;;;;;4935428;29;20972;-68
2022/05/28 07:57:46;;;;;;;0.70;0.70;;;18.80;52.40;;;;;;4935939;29;20448;-68
2022/05/28 08:00:14;;;;;;;1.00;0.80;;;18.90;52.60;;;;;;4935554;29;20940;-68
2022/05/28 08:02:40;;;;;;;1.00;0.80;;;19.40;51.40;;;;;;4935695;29;20496;-68
2022/05/28 08:05:08;;;;;;;0.80;0.63;;;19.50;50.40;;;;;;4935631;29;20459;-69
2022/05/28 08:07:35;;;;;;;0.80;0.73;;;19.50;51.60;;;;;;4936005;29;20463;-69
2022/05/28 08:10:03;;;;;;;0.70;0.70;;;19.40;53.50;;;;;;4935424;29;20448;-68
2022/05/28 08:12:29;;;;;;;0.70;0.60;;;19.40;53.10;;;;;;4935780;29;20527;-68
2022/05/28 08:14:56;;;;;;;0.97;0.73;;;19.40;50.60;;;;;;4935514;29;20467;-69
2022/05/28 08:17:23;;;;;;;0.90;0.60;;;19.40;51.00;;;;;;4935480;29;20451;-69
2022/05/28 08:19:49;;;;;;;0.70;0.60;;;19.40;50.90;;;;;;4935512;29;20539;-69
2022/05/28 08:25:00;;;;;;;1.30;1.07;;;19.30;48.50;;;;;;4939473;29;20403;-68
2022/05/28 08:27:28;;;;;;;1.03;0.70;;;19.10;50.20;;;;;;4939246;29;20443;-68
2022/05/28 08:29:55;;;;;;;0.80;0.70;;;19.20;51.10;;;;;;4939322;29;20448;-69
2022/05/28 08:32:21;;;;;;;0.70;0.60;;;19.10;51.60;;;;;;4939234;29;20467;-69
2022/05/28 08:34:48;;;;;;;0.97;0.70;;;19.30;49.50;;;;;;4939189;29;20448;-68
2022/05/28 08:37:15;;;;;;;0.80;0.70;;;19.30;50.30;;;;;;4939225;29;20491;-69
2022/05/28 08:39:41;;;;;;;0.63;0.53;;;19.40;48.60;;;;;;4938892;29;20451;-68
2022/05/28 08:42:13;;;;;;;1.13;1.03;;;19.40;48.40;;;;;;4939087;29;20511;-69
2022/05/28 08:44:42;;;;;;;0.70;0.70;;;19.30;48.60;;;;;;4939151;29;20522;-69
2022/05/28 08:47:15;;;;;;;0.80;0.70;;;19.20;48.30;;;;;;4938948;29;20483;-69
2022/05/28 08:49:44;;;;;;;0.70;0.60;;;19.30;51.40;;;;;;4938992;29;20444;-68
2022/05/28 08:52:14;;;;;;;0.70;0.60;;;19.30;49.20;;;;;;4938723;29;20522;-69
2022/05/28 08:54:56;;;;;;;0.70;0.60;;;19.10;49.00;;;;;;4938877;29;20573;-69
2022/05/28 08:57:29;;;;;;;0.70;0.60;;;19.20;48.50;;;;;;4938882;29;20507;-69
2022/05/28 09:00:01;;;;;;;0.80;0.70;;;19.40;49.40;;;;;;4938686;29;20502;-69
2022/05/28 09:02:37;;;;;;;0.70;0.70;;;19.50;49.70;;;;;;4938371;29;20514;-68
2022/05/28 09:05:05;;;;;;;0.80;0.70;;;19.50;47.60;;;;;;4938556;29;20582;-67
2022/05/28 09:07:32;;;;;;;0.70;0.50;;;19.60;50.20;;;;;;4939097;29;20451;-69
2022/05/28 09:10:00;;;;;;;0.70;0.60;;;19.70;48.50;;;;;;4938529;29;20455;-68
2022/05/28 09:12:30;;;;;;;0.70;0.60;;;19.40;50.40;;;;;;4938452;29;20539;-68
2022/05/28 09:14:59;;;;;;;0.70;0.60;;;19.60;51.40;;;;;;4939722;29;20506;-68
2022/05/28 09:17:28;;;;;;;0.80;0.60;;;19.90;48.50;;;;;;4938185;29;20499;-69
2022/05/28 09:19:58;;;;;;;0.70;0.70;;;19.80;47.50;;;;;;4938450;29;20578;-69
2022/05/28 09:22:25;;;;;;;0.70;0.60;;;19.70;46.80;;;;;;4937950;29;20967;-69
2022/05/28 09:24:52;;;;;;;0.70;0.60;;;19.60;47.40;;;;;;4937765;29;20970;-69
2022/05/28 09:27:27;;;;;;;1.00;0.90;;;19.70;48.80;;;;;;4938146;29;20526;-69
2022/05/28 09:30:09;;;;;;;0.70;0.60;;;19.80;48.40;;;;;;4938216;29;20526;-69
2022/05/28 09:32:59;;;;;;;0.90;0.80;;;19.90;48.70;;;;;;4937850;29;20472;-69
2022/05/28 09:35:41;;;;;;;0.67;0.60;;;19.80;49.40;;;;;;4938227;29;20451;-69
2022/05/28 09:38:15;;;;;;;0.70;0.60;;;19.70;48.70;;;;;;4938729;29;20793;-69
2022/05/28 09:40:50;;;;;;;0.70;0.60;;;19.80;46.00;;;;;;4937692;29;20910;-69
2022/05/28 09:43:33;;;;;;;0.80;0.63;;;19.80;49.30;;;;;;4937915;29;20531;-69
2022/05/28 09:46:12;;;;;;;0.70;0.60;;;19.70;49.20;;;;;;4937596;29;20911;-68
2022/05/28 09:48:39;;;;;;;0.80;0.60;;;19.90;49.90;;;;;;4938611;29;20436;-70
2022/05/28 09:51:22;;;;;;;1.20;0.70;;;19.80;47.10;;;;;;4937716;29;20471;-68
2022/05/28 09:56:36;;;;;;;0.70;0.60;;;19.70;48.40;;;;;;4937809;29;20515;-68
2022/05/28 09:59:06;;;;;;;1.27;0.70;;;19.60;49.00;;;;;;4937644;29;20452;-69
2022/05/28 10:01:34;;;;;;;1.20;0.80;;;19.90;51.80;;;;;;4937354;29;20511;-69
2022/05/28 10:06:51;;;;;;;0.60;0.50;;;20.10;47.90;;;;;;4937413;29;20423;-68
2022/05/28 10:09:20;;;;;;;0.70;0.57;;;20.30;47.90;;;;;;4937502;29;20515;-68
2022/05/28 10:11:51;;;;;;;0.80;0.63;;;20.20;46.30;;;;;;4937066;29;20980;-68
2022/05/28 10:14:18;;;;;;;0.70;0.70;;;20.20;47.20;;;;;;4937346;29;20456;-70
2022/05/28 10:16:48;;;;;;;0.80;0.60;;;20.30;48.30;;;;;;4937368;29;20511;-69
2022/05/28 10:19:26;;;;;;;0.70;0.60;;;20.30;47.40;;;;;;4937088;29;20550;-69
2022/05/28 10:21:56;;;;;;;1.00;0.70;;;20.50;48.00;;;;;;4936820;29;20463;-69
2022/05/28 10:24:25;;;;;;;0.70;0.67;;;20.60;46.70;;;;;;4937359;29;20487;-69
2022/05/28 10:26:54;;;;;;;0.90;0.63;;;20.70;47.20;;;;;;4936959;29;20483;-69
2022/05/28 10:29:27;;;;;;;0.90;0.67;;;20.50;47.80;;;;;;4937214;29;20452;-69
2022/05/28 10:31:58;;;;;;;0.70;0.60;;;20.40;47.10;;;;;;4937150;29;20555;-68
2022/05/28 10:34:34;;;;;;;0.80;0.60;;;20.10;46.70;;;;;;4936971;29;20536;-68
2022/05/28 10:37:11;;;;;;;0.70;0.70;;;19.90;48.60;;;;;;4936946;29;20502;-68
2022/05/28 10:39:38;;;;;;;0.70;0.60;;;19.80;47.60;;;;;;4936896;29;20459;-69
2022/05/28 10:42:08;;;;;;;0.90;0.80;;;19.60;48.80;;;;;;4936460;29;20475;-68
2022/05/28 10:44:35;;;;;;;0.70;0.60;;;19.90;47.60;;;;;;4936075;29;20599;-69
2022/05/28 10:47:22;;;;;;;0.70;0.60;;;20.00;47.40;;;;;;4936068;29;20923;-69
2022/05/28 10:50:01;;;;;;;0.70;0.60;;;20.10;48.70;;;;;;4936674;29;20440;-68
2022/05/28 10:52:38;;;;;;;0.70;0.60;;;19.80;47.80;;;;;;4936550;29;20487;-69
2022/05/28 10:55:09;;;;;;;0.60;0.50;;;19.90;48.40;;;;;;4936787;29;20428;-69
2022/05/28 10:57:59;;;;;;;0.70;0.67;;;19.90;48.80;;;;;;4936424;29;20444;-70
2022/05/28 11:00:32;;;;;;;0.70;0.60;;;20.00;48.40;;;;;;4936789;29;20432;-69
2022/05/28 11:03:30;;;;;;;0.70;0.60;;;19.80;48.70;;;;;;4936033;29;20523;-70
2022/05/28 11:06:26;;;;;;;0.70;0.60;;;19.60;48.50;;;;;;4938298;29;20428;-70
2022/05/28 11:09:04;;;;;;;1.33;0.60;;;19.30;50.60;;;;;;4902187;29;20464;-69
2022/05/28 11:11:44;;;;;;;0.97;0.70;;;19.10;51.10;;;;;;4938141;29;20498;-69
2022/05/28 11:14:51;;;;;;;0.70;0.60;;;19.10;50.90;;;;;;4937840;29;20443;-69
2022/05/28 11:17:32;;;;;;;0.80;0.70;;;19.10;52.30;;;;;;4937982;29;20432;-68
2022/05/28 11:20:15;;;;;;;0.73;0.70;;;19.00;50.60;;;;;;4937697;29;20444;-70
2022/05/28 11:23:08;;;;;;;0.70;0.60;;;19.10;50.00;;;;;;4937550;29;20468;-69
2022/05/28 11:25:48;;;;;;;0.70;0.60;;;19.40;49.50;;;;;;4937481;29;20492;-69
2022/05/28 11:28:44;;;;;;;0.60;0.50;;;19.60;48.80;;;;;;4936135;29;20432;-69
2022/05/28 11:31:19;;;;;;;0.90;0.60;;;19.60;50.60;;;;;;4936298;29;20471;-69
2022/05/28 11:33:49;;;;;;;0.70;0.60;;;19.70;51.00;;;;;;4935612;29;20443;-69
2022/05/28 11:36:25;;;;;;;0.77;0.60;;;19.60;48.80;;;;;;4935794;29;20436;-70
2022/05/28 11:38:58;;;;;;;0.63;0.60;;;19.80;49.00;;;;;;4935295;29;20467;-69
2022/05/28 11:41:32;;;;;;;0.70;0.60;;;20.20;48.10;;;;;;4935619;29;20547;-70
2022/05/28 11:44:08;;;;;;;0.73;0.60;;;20.20;47.90;;;;;;4935709;29;20478;-69
2022/05/28 11:46:41;;;;;;;0.70;0.70;;;20.50;47.40;;;;;;4935671;29;20447;-69
2022/05/28 11:52:06;;;;;;;1.00;0.77;;;20.90;45.70;;;;;;4935916;29;20950;-69
2022/05/28 11:54:39;;;;;;;0.63;0.50;;;21.10;47.20;;;;;;4937261;29;20431;-69
2022/05/28 11:57:10;;;;;;;0.70;0.60;;;21.20;44.70;;;;;;4937389;29;20431;-69
2022/05/28 11:59:38;;;;;;;0.70;0.60;;;21.30;45.10;;;;;;4937899;29;20464;-69
2022/05/28 12:02:10;;;;;;;1.00;0.70;;;21.40;46.20;;;;;;4937297;29;20491;-70
2022/05/28 12:04:39;;;;;;;0.80;0.63;;;21.30;45.30;;;;;;4937429;29;20561;-69
2022/05/28 12:07:13;;;;;;;0.70;0.60;;;21.20;44.80;;;;;;4938000;29;20892;-69
2022/05/28 12:09:44;;;;;;;0.70;0.60;;;21.00;44.80;;;;;;4937752;29;20471;-70
2022/05/28 12:12:18;;;;;;;0.70;0.60;;;20.70;45.80;;;;;;4936943;29;20531;-69
2022/05/28 12:14:48;;;;;;;0.70;0.60;;;20.90;47.10;;;;;;4937105;29;20436;-69
2022/05/28 12:17:26;;;;;;;0.70;0.60;;;21.00;44.10;;;;;;4936701;29;20944;-70
2022/05/28 12:19:54;;;;;;;0.77;0.70;;;21.20;44.00;;;;;;4936978;29;20457;-69
2022/05/28 12:22:32;;;;;;;0.80;0.70;;;21.40;44.50;;;;;;4936720;29;20475;-69
2022/05/28 12:25:06;;;;;;;0.70;0.60;;;21.50;42.50;;;;;;4937158;29;20499;-69
2022/05/28 12:27:40;;;;;;;0.70;0.60;;;21.50;42.20;;;;;;4937737;29;20538;-70
2022/05/28 12:30:09;;;;;;;0.60;0.50;;;21.20;43.10;;;;;;4937134;29;20447;-70
2022/05/28 12:32:45;;;;;;;0.70;0.60;;;21.20;43.60;;;;;;4936839;29;20507;-71
2022/05/28 12:35:35;;;;;;;0.80;0.60;;;21.20;43.70;;;;;;4938230;29;20862;-71
2022/05/28 12:38:16;;;;;;;0.93;0.60;;;21.50;43.00;;;;;;4937501;29;20436;-70
2022/05/28 12:40:49;;;;;;;0.70;0.60;;;21.60;43.30;;;;;;4937802;29;20505;-70
2022/05/28 12:43:19;;;;;;;0.80;0.60;;;22.00;42.80;;;;;;4938110;29;20420;-69
2022/05/28 12:45:48;;;;;;;0.80;0.60;;;21.70;42.70;;;;;;4937553;29;20491;-71
2022/05/28 12:48:20;;;;;;;1.00;0.70;;;21.60;44.90;;;;;;4935593;29;20462;-70
2022/05/28 12:51:04;;;;;;;0.67;0.57;;;21.70;45.10;;;;;;4935201;29;20472;-69
2022/05/28 12:53:35;;;;;;;0.70;0.60;;;21.60;44.80;;;;;;4934845;29;20817;-69
2022/05/28 12:56:06;;;;;;;0.60;0.50;;;21.30;44.90;;;;;;4935064;29;20467;-69
2022/05/28 12:58:36;;;;;;;0.70;0.60;;;20.90;47.70;;;;;;4934783;29;20812;-70
2022/05/28 13:01:05;;;;;;;0.70;0.60;;;20.70;46.60;;;;;;4934565;29;20967;-69
2022/05/28 13:03:35;;;;;;;1.05;0.65;;;20.40;47.60;;;;;;4934988;29;20456;-69
2022/05/28 13:06:08;;;;;;;0.70;0.53;;;20.20;48.90;;;;;;4935062;29;20263;-69
2022/05/28 13:08:45;;;;;;;1.00;1.00;;;20.10;47.00;;;;;;4936813;29;20475;-69
2022/05/28 13:11:25;;;;;;;0.90;0.60;;;20.40;48.00;;;;;;4938661;29;20479;-70
2022/05/28 13:14:13;;;;;;;0.80;0.70;;;20.50;46.90;;;;;;4938822;29;20459;-69
2022/05/28 13:17:13;;;;;;;0.70;0.60;;;20.50;48.10;;;;;;4938814;29;20854;-69
2022/05/28 13:20:03;;;;;;;0.70;0.53;;;20.90;47.50;;;;;;4938636;29;20447;-70
2022/05/28 13:22:48;;;;;;;0.70;0.70;;;20.80;45.00;;;;;;4938839;29;20476;-69
2022/05/28 13:25:27;;;;;;;0.70;0.63;;;21.00;46.80;;;;;;4938536;29;20529;-70
2022/05/28 13:28:11;;;;;;;0.80;0.70;;;21.10;45.20;;;;;;4939074;29;20432;-70
2022/05/28 13:30:41;;;;;;;0.70;0.60;;;20.90;47.30;;;;;;4938701;29;20440;-70
2022/05/28 13:33:11;;;;;;;0.70;0.60;;;21.10;46.00;;;;;;4939023;29;20506;-70
2022/05/28 13:35:48;;;;;;;0.80;0.70;;;21.10;46.60;;;;;;4938826;29;20455;-69
2022/05/28 13:38:18;;;;;;;0.70;0.60;;;21.00;45.90;;;;;;4938343;29;20439;-70
2022/05/28 13:40:48;;;;;;;0.60;0.50;;;21.00;45.10;;;;;;4938003;29;20467;-70
2022/05/28 13:43:18;;;;;;;0.70;0.60;;;21.00;43.90;;;;;;4938009;29;20459;-70
2022/05/28 13:45:48;;;;;;;0.70;0.50;;;20.90;44.00;;;;;;4937921;29;20967;-69
2022/05/28 13:48:17;;;;;;;0.70;0.60;;;20.70;44.50;;;;;;4937807;29;20483;-69
2022/05/28 13:50:45;;;;;;;0.70;0.60;;;20.70;44.10;;;;;;4937853;29;20558;-70
2022/05/28 13:53:15;;;;;;;0.70;0.60;;;20.80;45.40;;;;;;4937582;29;20447;-70
2022/05/28 13:55:44;;;;;;;1.47;0.70;;;21.10;45.50;;;;;;4937999;29;20825;-70
2022/05/28 13:58:21;;;;;;;0.80;0.63;;;21.50;44.90;;;;;;4938461;29;20456;-70
2022/05/28 14:00:55;;;;;;;0.70;0.57;;;22.00;46.60;;;;;;4937710;29;20478;-70
2022/05/28 14:03:28;;;;;;;0.60;0.60;;;22.10;45.10;;;;;;4938522;29;20440;-70
2022/05/28 14:05:55;;;;;;;1.10;0.70;;;22.40;43.20;;;;;;4937589;29;20488;-70
2022/05/28 14:08:26;;;;;;;1.43;0.57;;;22.60;42.90;;;;;;4937584;29;20447;-69
2022/05/28 14:11:00;;;;;;;0.70;0.60;;;22.50;43.70;;;;;;4937337;29;20471;-70
2022/05/28 14:13:32;;;;;;;0.70;0.60;;;22.40;42.70;;;;;;4937351;29;20526;-70
2022/05/28 14:15:59;;;;;;;0.70;0.60;;;22.10;43.80;;;;;;4937518;29;20432;-69
2022/05/28 14:18:28;;;;;;;0.70;0.60;;;22.00;44.10;;;;;;4937662;29;20452;-70
2022/05/28 14:21:08;;;;;;;0.70;0.60;;;21.90;44.10;;;;;;4937252;29;20999;-70
2022/05/28 14:23:40;;;;;;;0.70;0.60;;;22.00;44.10;;;;;;4937210;29;20431;-70
2022/05/28 14:26:08;;;;;;;0.70;0.50;;;22.30;43.70;;;;;;4936913;29;20531;-70
2022/05/28 14:28:36;;;;;;;0.70;0.50;;;22.50;42.30;;;;;;4936943;29;20451;-70
2022/05/28 14:31:03;;;;;;;0.70;0.67;;;22.70;41.10;;;;;;4937105;29;20472;-70
2022/05/28 14:33:33;;;;;;;0.70;0.70;;;22.60;40.70;;;;;;4937281;29;20511;-69
2022/05/28 14:36:08;;;;;;;0.60;0.57;;;22.60;42.60;;;;;;4937241;29;20507;-70
2022/05/28 14:38:36;;;;;;;0.70;0.60;;;22.70;42.50;;;;;;4937054;29;20447;-70
2022/05/28 14:41:09;;;;;;;0.70;0.50;;;22.60;42.30;;;;;;4936616;29;21054;-69
2022/05/28 14:43:37;;;;;;;0.70;0.50;;;22.40;42.20;;;;;;4937393;29;20510;-70
2022/05/28 14:46:18;;;;;;;0.70;0.60;;;22.20;42.70;;;;;;4936630;29;20498;-70
2022/05/28 14:48:45;;;;;;;0.70;0.60;;;22.00;41.40;;;;;;4936881;29;20444;-70
2022/05/28 14:51:12;;;;;;;0.70;0.50;;;21.60;41.90;;;;;;4936755;29;20468;-70
2022/05/28 14:53:41;;;;;;;0.70;0.60;;;21.50;42.30;;;;;;4936782;29;20515;-70
2022/05/28 14:56:12;;;;;;;0.70;0.60;;;21.50;42.90;;;;;;4936684;29;20455;-70
2022/05/28 14:58:44;;;;;;;0.80;0.70;;;21.30;42.80;;;;;;4936647;29;20865;-70
2022/05/28 15:01:13;;;;;;;0.77;0.77;;;21.30;41.40;;;;;;4936415;29;20502;-70
2022/05/28 15:03:40;;;;;;;0.60;0.60;;;21.50;41.50;;;;;;4936331;29;20944;-70
2022/05/28 15:06:13;;;;;;;0.60;0.50;;;21.60;42.80;;;;;;4936106;29;20483;-70
2022/05/28 15:08:47;;;;;;;0.63;0.50;;;21.80;42.70;;;;;;4936461;29;20455;-70
2022/05/28 15:11:22;;;;;;;1.47;0.60;;;21.70;42.40;;;;;;4936180;29;21010;-70
2022/05/28 15:13:51;;;;;;;0.70;0.60;;;21.90;41.00;;;;;;4963591;23;20458;-71
2022/05/28 15:16:17;;;;;;;0.60;0.50;;;22.00;41.60;;;;;;4956139;29;20455;-73
2022/05/28 15:18:44;;;;;;;0.80;0.60;;;22.30;40.60;;;;;;4956151;29;20442;-72
2022/05/28 15:21:11;;;;;;;0.80;0.60;;;22.40;40.40;;;;;;4956083;29;20510;-73
2022/05/28 15:23:37;;;;;;;0.83;0.57;;;22.30;40.90;;;;;;4956080;29;20451;-73
2022/05/28 15:26:04;;;;;;;0.60;0.50;;;22.30;42.50;;;;;;4955879;29;20529;-73
2022/05/28 15:28:31;;;;;;;0.70;0.50;;;22.00;41.60;;;;;;4956019;29;20856;-72
2022/05/28 15:30:59;;;;;;;0.70;0.60;;;21.80;41.40;;;;;;4955143;28;20850;-73
2022/05/28 15:33:27;;;;;;;0.70;0.60;;;21.60;42.50;;;;;;4955946;29;20521;-73
2022/05/28 15:38:38;;;;;;;0.70;0.60;;;21.60;42.20;;;;;;4955934;29;20406;-72
2022/05/28 15:41:08;;;;;;;0.70;0.53;;;21.60;42.20;;;;;;4955518;29;21005;-73
2022/05/28 15:43:35;;;;;;;0.60;0.60;;;21.80;41.70;;;;;;4955797;29;20446;-72
2022/05/28 15:46:04;;;;;;;1.03;0.60;;;21.80;41.90;;;;;;4955662;29;20498;-73
2022/05/28 15:48:31;;;;;;;0.70;0.60;;;21.80;42.30;;;;;;4955404;29;21005;-73
2022/05/28 15:50:59;;;;;;;0.67;0.60;;;21.80;42.30;;;;;;4955646;29;20454;-72
2022/05/28 15:53:26;;;;;;;0.70;0.60;;;21.70;42.60;;;;;;4955625;29;20506;-72
2022/05/28 15:55:53;;;;;;;0.60;0.50;;;21.70;42.00;;;;;;4955547;29;20470;-72
2022/05/28 15:58:24;;;;;;;0.63;0.53;;;21.60;42.40;;;;;;4955578;29;20510;-73
2022/05/28 16:00:51;;;;;;;0.67;0.60;;;21.70;41.40;;;;;;4955609;29;20439;-73
2022/05/28 16:03:19;;;;;;;0.70;0.50;;;21.70;41.40;;;;;;4955554;29;20867;-73
2022/05/28 16:05:46;;;;;;;0.70;0.60;;;21.70;41.70;;;;;;4955245;29;20483;-72
2022/05/28 16:08:33;;;;;;;0.70;0.53;;;21.80;42.20;;;;;;4955462;29;20501;-73
2022/05/28 16:11:01;;;;;;;0.80;0.70;;;21.80;41.80;;;;;;4955482;29;20443;-73
2022/05/28 16:13:28;;;;;;;0.70;0.60;;;22.00;42.30;;;;;;4956276;29;20455;-73
2022/05/28 16:15:55;;;;;;;0.73;0.60;;;22.00;42.20;;;;;;4954934;29;20537;-72
2022/05/28 16:18:23;;;;;;;0.70;0.60;;;21.70;42.30;;;;;;4955426;29;20478;-73
2022/05/28 16:20:50;;;;;;;0.70;0.60;;;21.50;42.40;;;;;;4954973;29;20505;-72
2022/05/28 16:23:16;;;;;;;0.90;0.60;;;21.30;43.00;;;;;;4954878;29;20830;-73